Elk, Poland
Current Conditions -  °F | °C
As of 3:00 PM on Friday 31 Oct 2014 (Local Time) from UMMG Reporting Station
Broken Clouds Broken Clouds  
Wind Chill: 44°   Ceiling: 2300
Heat Index: 46°   Visibility: 6mi
Dew Point: 39°   Wind: 4mph
Humidity: 76%   Direction: 300°WNW
Pressure: 30.3"   Gusts: NA
Location:  53.83°N, 22.36°E
Report Text: UMMG 311300Z 30002MPS 9999 BKN023 BKN066 08/04 Q1026 R17/CLRD//NOSIG
Loading
Personal Weather Stations






























Interactive Weather Map
Tropical Storm Tracking
New forecast layout! Learn more

10-Day Weather Forecast

Advertisements
Track Severe Weather on mobile